createdAt,value
2023-03-08T00:00:39.384Z,93360.16
2023-03-08T00:03:33.421Z,93358.44
2023-03-08T00:06:29.389Z,93360.13
2023-03-08T00:09:23.387Z,93360.97
2023-03-08T00:12:10.443Z,93366.88
2023-03-08T00:14:43.497Z,93360.97
2023-03-08T00:17:31.369Z,93368.59
2023-03-08T00:20:06.087Z,93357.63
2023-03-08T00:22:52.385Z,93366.88
2023-03-08T00:25:32.405Z,93365.16
2023-03-08T00:28:19.371Z,93364.31
2023-03-08T00:30:52.572Z,93362.66
2023-03-08T00:33:40.455Z,93354.22
2023-03-08T00:36:19.507Z,93358.41
2023-03-08T00:39:06.416Z,93357.53
2023-03-08T00:41:40.489Z,93347.44
2023-03-08T00:44:27.400Z,93343.25
2023-03-08T00:47:00.514Z,93338.16
2023-03-08T00:49:47.451Z,93339.00
2023-03-08T00:52:20.503Z,93326.38
2023-03-08T00:55:14.409Z,93333.09
2023-03-08T00:58:08.410Z,93327.28
2023-03-08T01:01:02.480Z,93324.75
2023-03-08T01:03:49.427Z,93323.03
2023-03-08T01:06:23.064Z,93326.41
2023-03-08T01:09:09.399Z,93331.47
2023-03-08T01:11:43.350Z,93328.94
2023-03-08T01:14:30.401Z,93323.88
2023-03-08T01:17:10.408Z,93333.16
2023-03-08T01:19:57.439Z,93320.53
2023-03-08T01:22:37.384Z,93317.19
2023-03-08T01:25:31.409Z,93318.97
2023-03-08T01:28:25.412Z,93323.19
2023-03-08T01:31:23.439Z,93330.81
2023-03-08T01:33:56.517Z,93318.22
2023-03-08T01:36:43.484Z,93315.72
2023-03-08T01:39:16.523Z,93319.13
2023-03-08T01:42:03.382Z,93320.84
2023-03-08T01:45:05.502Z,93324.19
2023-03-08T01:47:52.442Z,93325.91
2023-03-08T01:50:26.576Z,93331.00
2023-03-08T01:53:13.400Z,93330.19
2023-03-08T01:55:46.538Z,93329.41
2023-03-08T01:58:33.417Z,93326.06
2023-03-08T02:01:06.576Z,93326.88
2023-03-08T02:03:54.406Z,93326.88
2023-03-08T02:06:35.399Z,93328.59
2023-03-08T02:09:22.458Z,93330.28
2023-03-08T02:11:56.531Z,93337.03
2023-03-08T02:14:43.468Z,93337.94
2023-03-08T02:17:25.430Z,93332.03
2023-03-08T02:20:28.427Z,93332.09
2023-03-08T02:23:22.415Z,93337.22
2023-03-08T02:26:17.575Z,93333.94
2023-03-08T02:29:04.438Z,93322.28
2023-03-08T02:31:44.435Z,93321.47
2023-03-08T02:34:31.448Z,93316.56
2023-03-08T02:37:11.459Z,93320.03
2023-03-08T02:39:58.426Z,93322.56
2023-03-08T02:42:31.533Z,93334.44
2023-03-08T02:45:18.424Z,93327.81
2023-03-08T02:47:58.441Z,93334.56
2023-03-08T02:50:52.429Z,93329.56
2023-03-08T02:53:39.437Z,93321.19
2023-03-08T02:56:12.559Z,93329.66
2023-03-08T02:58:59.437Z,93334.72
2023-03-08T03:01:32.592Z,93333.88
2023-03-08T03:04:19.450Z,93342.34
2023-03-08T03:06:59.431Z,93325.56
2023-03-08T03:09:53.439Z,93348.31
2023-03-08T03:12:40.445Z,93350.06
2023-03-08T03:15:22.461Z,93352.59
2023-03-08T03:18:09.454Z,93347.56
2023-03-08T03:20:42.545Z,93350.94
2023-03-08T03:23:29.431Z,93350.16
2023-03-08T03:26:25.446Z,93338.41
2023-03-08T03:29:06.458Z,93351.00
2023-03-08T03:31:53.440Z,93342.63
2023-03-08T03:34:26.858Z,93340.94
2023-03-08T03:37:13.437Z,93338.41
2023-03-08T03:39:47.244Z,93330.03
2023-03-08T03:42:33.436Z,93336.78
2023-03-08T03:45:16.440Z,93331.72
2023-03-08T03:47:56.550Z,93328.38
2023-03-08T03:50:36.457Z,93327.56
2023-03-08T03:53:16.547Z,93335.13
2023-03-08T03:56:04.452Z,93340.16
2023-03-08T03:58:59.459Z,93337.66
2023-03-08T04:01:46.463Z,93342.69
2023-03-08T04:04:19.576Z,93336.78
2023-03-08T04:07:06.464Z,93345.97
2023-03-08T04:09:39.561Z,93344.31
2023-03-08T04:12:26.486Z,93349.31
2023-03-08T04:15:00.568Z,93345.91
2023-03-08T04:17:47.468Z,93360.16
2023-03-08T04:20:46.509Z,93359.34
2023-03-08T04:23:40.464Z,93349.25
2023-03-08T04:26:34.476Z,93364.38
2023-03-08T04:29:21.460Z,93372.75
2023-03-08T04:32:04.624Z,93360.88
2023-03-08T04:34:51.461Z,93375.00
2023-03-08T04:37:31.456Z,93379.03
2023-03-08T04:40:25.499Z,93373.78
2023-03-08T04:43:12.457Z,93386.22
2023-03-08T04:45:45.585Z,93381.16
2023-03-08T04:48:32.477Z,93378.50
2023-03-08T04:51:08.724Z,93372.56
2023-03-08T04:53:55.479Z,93386.06
2023-03-08T04:56:28.586Z,93385.19
2023-03-08T04:59:15.480Z,93389.38
2023-03-08T05:01:48.623Z,93390.16
2023-03-08T05:04:35.551Z,93403.63
2023-03-08T05:07:08.589Z,93408.66
2023-03-08T05:09:55.468Z,93387.63
2023-03-08T05:12:28.591Z,93400.22
2023-03-08T05:15:15.481Z,93396.09
2023-03-08T05:17:48.587Z,93398.63
2023-03-08T05:20:35.494Z,93397.75
2023-03-08T05:23:08.577Z,93409.56
2023-03-08T05:25:58.508Z,93410.38
2023-03-08T05:28:48.502Z,93407.94
2023-03-08T05:31:35.534Z,93404.59
2023-03-08T05:34:15.524Z,93401.16
2023-03-08T05:37:09.513Z,93403.66
2023-03-08T05:39:56.495Z,93408.72
2023-03-08T05:42:30.583Z,93422.16
2023-03-08T05:45:17.573Z,93427.22
2023-03-08T05:47:50.620Z,93433.03
2023-03-08T05:50:37.496Z,93443.13
2023-03-08T05:53:17.510Z,93444.78
2023-03-08T05:56:11.518Z,93442.19
2023-03-08T05:59:05.492Z,93470.72
2023-03-08T06:01:52.544Z,93469.91
2023-03-08T06:04:25.610Z,93465.72
2023-03-08T06:07:12.512Z,93476.59
2023-03-08T06:09:45.621Z,93478.16
2023-03-08T06:12:32.502Z,93489.84
2023-03-08T06:15:15.483Z,93492.28
2023-03-08T06:18:09.500Z,93509.03
2023-03-08T06:21:05.490Z,93504.56
2023-03-08T06:23:40.616Z,93519.50
2023-03-08T06:26:27.518Z,93520.00
2023-03-08T06:29:00.623Z,93521.31
2023-03-08T06:31:47.525Z,93514.94
2023-03-08T06:34:21.702Z,93516.09
2023-03-08T06:37:08.522Z,93513.81
2023-03-08T06:39:44.564Z,93506.41
2023-03-08T06:42:41.237Z,93516.72
2023-03-08T06:45:18.663Z,93521.28
2023-03-08T06:48:05.510Z,93519.97
2023-03-08T06:50:39.628Z,93526.34
2023-03-08T06:53:26.521Z,93519.38
2023-03-08T06:56:02.986Z,93531.53
2023-03-08T06:58:50.518Z,93518.44
2023-03-08T07:01:30.566Z,93523.25
2023-03-08T07:04:24.546Z,93544.13
2023-03-08T07:07:18.539Z,93535.38
2023-03-08T07:10:05.527Z,93542.03
2023-03-08T07:12:46.729Z,93542.97
2023-03-08T07:15:36.638Z,93539.69
2023-03-08T07:18:16.523Z,93549.59
2023-03-08T07:21:10.563Z,93554.63
2023-03-08T07:24:05.558Z,93550.41
2023-03-08T07:26:52.507Z,93552.03
2023-03-08T07:29:25.646Z,93555.41
2023-03-08T07:32:12.662Z,93556.25
2023-03-08T07:34:45.648Z,93555.28
2023-03-08T07:37:32.538Z,93547.53
2023-03-08T07:40:12.548Z,93556.56
2023-03-08T07:43:06.542Z,93552.56
2023-03-08T07:46:00.637Z,93545.72
2023-03-08T07:48:47.563Z,93558.13
2023-03-08T07:51:20.710Z,93568.31
2023-03-08T07:54:07.563Z,93568.84
2023-03-08T07:56:40.660Z,93568.47
2023-03-08T07:59:27.537Z,93568.50
2023-03-08T08:02:00.674Z,93571.88
2023-03-08T08:04:47.553Z,93574.41
2023-03-08T08:07:22.695Z,93579.69
2023-03-08T08:10:09.564Z,93583.25
2023-03-08T08:12:42.907Z,93584.88
2023-03-08T08:15:32.549Z,93583.97
2023-03-08T08:18:13.548Z,93585.63
2023-03-08T08:21:18.555Z,93589.19
2023-03-08T08:24:05.549Z,93594.22
2023-03-08T08:26:38.667Z,93589.81
2023-03-08T08:29:25.558Z,93587.28
2023-03-08T08:31:58.660Z,93582.97
2023-03-08T08:34:45.552Z,93585.09
2023-03-08T08:37:25.581Z,93584.75
2023-03-08T08:40:14.584Z,93593.84
2023-03-08T08:42:54.589Z,93598.47
2023-03-08T08:45:48.632Z,93601.53
2023-03-08T08:48:36.596Z,93594.50
2023-03-08T08:51:17.556Z,93603.63
2023-03-08T08:54:04.632Z,93611.84
2023-03-08T08:56:42.709Z,93618.31
2023-03-08T08:59:29.568Z,93626.28
2023-03-08T09:02:09.638Z,93631.41
2023-03-08T09:04:56.603Z,93628.41
2023-03-08T09:07:29.673Z,93622.75
2023-03-08T09:10:17.586Z,93618.47
2023-03-08T09:12:58.550Z,93617.84
2023-03-08T09:15:52.563Z,93609.19
2023-03-08T09:18:46.636Z,93608.13
2023-03-08T09:21:34.600Z,93618.22
2023-03-08T09:24:17.597Z,93622.41
2023-03-08T09:27:11.585Z,93628.38
2023-03-08T09:30:05.583Z,93624.75
2023-03-08T09:32:52.676Z,93610.06
2023-03-08T09:35:25.715Z,93603.94
2023-03-08T09:38:12.598Z,93610.56
2023-03-08T09:40:58.698Z,93612.59
2023-03-08T09:44:18.609Z,93602.97
2023-03-08T09:47:01.927Z,93609.84
2023-03-08T09:49:51.579Z,93615.63
2023-03-08T09:53:19.603Z,93612.72
2023-03-08T09:56:17.597Z,93623.34
2023-03-08T09:59:26.691Z,93614.94
2023-03-08T10:02:41.620Z,93612.00
2023-03-08T10:05:24.609Z,93628.47
2023-03-08T10:08:29.616Z,93620.94
2023-03-08T10:11:37.612Z,93599.13
2023-03-08T10:14:33.596Z,93600.28
2023-03-08T10:17:31.615Z,93595.25
2023-03-08T10:20:33.610Z,93598.56
2023-03-08T10:23:32.671Z,93603.78
2023-03-08T10:26:21.603Z,93604.88
2023-03-08T10:29:01.588Z,93602.38
2023-03-08T10:31:57.638Z,93591.84
2023-03-08T10:34:44.617Z,93590.63
2023-03-08T10:37:24.873Z,93596.22
2023-03-08T10:40:36.691Z,93602.25
2023-03-08T10:43:41.625Z,93603.28
2023-03-08T10:46:31.684Z,93591.78
2023-03-08T10:49:27.848Z,93596.41
2023-03-08T10:52:30.628Z,93591.34
2023-03-08T10:55:34.617Z,93584.84
2023-03-08T10:58:43.636Z,93583.28
2023-03-08T11:01:42.616Z,93573.31
2023-03-08T11:04:32.724Z,93569.91
2023-03-08T11:07:17.676Z,93575.88
2023-03-08T11:10:20.103Z,93560.91
2023-03-08T11:12:53.729Z,93567.72
2023-03-08T11:15:44.650Z,93554.28
2023-03-08T11:18:35.815Z,93549.19
2023-03-08T11:21:56.662Z,93540.63
2023-03-08T11:24:41.631Z,93536.84
2023-03-08T11:28:01.732Z,93534.59
2023-03-08T11:31:12.747Z,93526.38
2023-03-08T11:33:54.847Z,93522.44
2023-03-08T11:36:52.699Z,93522.09
2023-03-08T11:39:50.911Z,93519.44
2023-03-08T11:42:57.827Z,93517.34
2023-03-08T11:46:22.907Z,93526.19
2023-03-08T11:49:48.845Z,93519.28
2023-03-08T11:52:59.813Z,93513.88
2023-03-08T11:55:48.844Z,93507.56
2023-03-08T11:58:49.258Z,93514.22
2023-03-08T12:01:44.835Z,93503.97
2023-03-08T12:04:46.974Z,93499.81
2023-03-08T12:07:49.914Z,93503.19
2023-03-08T12:10:32.051Z,93503.13
2023-03-08T12:13:18.940Z,93491.19
2023-03-08T12:16:03.972Z,93496.94
2023-03-08T12:18:56.242Z,93494.28
2023-03-08T12:21:49.189Z,93489.13
2023-03-08T12:24:41.835Z,93488.97
2023-03-08T12:27:34.032Z,93480.28
2023-03-08T12:30:44.927Z,93479.38
2023-03-08T12:33:34.086Z,93475.94
2023-03-08T12:36:11.142Z,93483.53
2023-03-08T12:39:02.887Z,93490.47
2023-03-08T12:41:38.081Z,93479.50
2023-03-08T12:44:33.947Z,93479.72
2023-03-08T12:47:24.072Z,93487.56
2023-03-08T12:50:25.599Z,93483.81
2023-03-08T12:53:05.926Z,93486.84
2023-03-08T12:55:59.967Z,93491.53
2023-03-08T12:59:06.905Z,93482.47
2023-03-08T13:02:12.892Z,93478.94
2023-03-08T13:05:34.960Z,93486.59
2023-03-08T13:08:22.891Z,93476.50
2023-03-08T13:10:58.992Z,93483.56
2023-03-08T13:14:02.946Z,93468.91
2023-03-08T13:16:48.183Z,93454.50
2023-03-08T13:19:37.928Z,93454.72
2023-03-08T13:22:37.060Z,93449.75
2023-03-08T13:25:39.978Z,93452.34
2023-03-08T13:28:21.118Z,93459.34
2023-03-08T13:31:10.953Z,93455.09
2023-03-08T13:33:54.917Z,93451.69
2023-03-08T13:36:41.919Z,93451.56
2023-03-08T13:39:36.902Z,93455.66
2023-03-08T13:42:30.903Z,93447.84
2023-03-08T13:45:26.942Z,93439.47
2023-03-08T13:48:04.002Z,93438.63
2023-03-08T13:50:53.931Z,93425.84
2023-03-08T13:53:32.040Z,93428.38
2023-03-08T13:56:31.912Z,93428.44
2023-03-08T13:59:07.090Z,93431.81
2023-03-08T14:01:57.932Z,93429.34
2023-03-08T14:04:44.034Z,93437.84
2023-03-08T14:07:31.922Z,93433.88
2023-03-08T14:10:06.012Z,93434.84
2023-03-08T14:12:52.923Z,93427.19
2023-03-08T14:15:33.127Z,93430.66
2023-03-08T14:18:31.934Z,93433.28
2023-03-08T14:21:14.973Z,93437.59
2023-03-08T14:24:08.970Z,93436.84
2023-03-08T14:26:56.299Z,93427.41
2023-03-08T14:29:49.963Z,93436.75
2023-03-08T14:32:38.968Z,93430.13
2023-03-08T14:35:35.968Z,93434.44
2023-03-08T14:38:55.947Z,93428.78
2023-03-08T14:41:43.920Z,93425.50
2023-03-08T14:44:33.916Z,93421.38
2023-03-08T14:47:32.926Z,93413.19
2023-03-08T14:50:32.058Z,93410.66
2023-03-08T14:53:37.930Z,93418.47
2023-03-08T14:56:37.962Z,93411.72
2023-03-08T14:59:31.914Z,93403.44
2023-03-08T15:02:23.917Z,93401.03
2023-03-08T15:05:05.919Z,93401.03
2023-03-08T15:07:55.918Z,93388.59
2023-03-08T15:10:38.004Z,93388.75
2023-03-08T15:13:27.912Z,93378.00
2023-03-08T15:16:02.039Z,93372.94
2023-03-08T15:18:49.939Z,93371.34
2023-03-08T15:21:36.927Z,93361.31
2023-03-08T15:24:25.979Z,93362.28
2023-03-08T15:27:00.027Z,93353.13
2023-03-08T15:29:47.962Z,93355.09
2023-03-08T15:32:29.026Z,93359.44
2023-03-08T15:35:23.969Z,93347.66
2023-03-08T15:38:13.448Z,93349.41
2023-03-08T15:40:53.914Z,93346.16
2023-03-08T15:43:48.960Z,93342.19
2023-03-08T15:46:39.700Z,93337.16
2023-03-08T15:49:13.263Z,93352.66
2023-03-08T15:52:00.956Z,93358.97
2023-03-08T15:54:34.044Z,93362.44
2023-03-08T15:57:20.953Z,93366.06
2023-03-08T15:59:54.091Z,93372.25
2023-03-08T16:02:40.967Z,93376.50
2023-03-08T16:05:22.958Z,93369.97
2023-03-08T16:08:17.018Z,93371.94
2023-03-08T16:11:11.106Z,93382.31
2023-03-08T16:14:06.947Z,93375.75
2023-03-08T16:16:53.982Z,93365.03
2023-03-08T16:19:27.070Z,93362.63
2023-03-08T16:22:14.970Z,93360.38
2023-03-08T16:24:54.965Z,93363.00
2023-03-08T16:27:49.960Z,93356.38
2023-03-08T16:30:45.964Z,93360.69
2023-03-08T16:33:36.447Z,93355.66
2023-03-08T16:36:10.135Z,93348.22
2023-03-08T16:39:03.973Z,93342.34
2023-03-08T16:41:58.008Z,93347.44
2023-03-08T16:44:45.975Z,93345.00
2023-03-08T16:47:19.191Z,93351.00
2023-03-08T16:50:06.960Z,93349.34
2023-03-08T16:52:40.037Z,93341.03
2023-03-08T16:55:27.022Z,93337.63
2023-03-08T16:58:00.059Z,93334.28
2023-03-08T17:00:47.993Z,93329.19
2023-03-08T17:03:22.064Z,93326.78
2023-03-08T17:06:08.959Z,93324.38
2023-03-08T17:08:42.076Z,93325.25
2023-03-08T17:11:31.961Z,93322.72
2023-03-08T17:14:12.075Z,93328.81
2023-03-08T17:16:59.025Z,93330.53
2023-03-08T17:19:32.140Z,93322.06
2023-03-08T17:22:18.962Z,93326.19
2023-03-08T17:24:52.076Z,93321.25
2023-03-08T17:27:38.974Z,93303.47
2023-03-08T17:30:14.300Z,93305.19
2023-03-08T17:33:00.983Z,93306.16
2023-03-08T17:35:34.238Z,93307.00
2023-03-08T17:38:27.965Z,93312.00
2023-03-08T17:41:24.965Z,93303.59
2023-03-08T17:44:11.975Z,93313.84
2023-03-08T17:46:45.097Z,93312.97
2023-03-08T17:49:32.010Z,93303.72
2023-03-08T17:52:05.070Z,93307.91
2023-03-08T17:54:54.353Z,93307.09
2023-03-08T17:57:28.046Z,93302.94
2023-03-08T18:00:20.044Z,93299.59
2023-03-08T18:02:54.121Z,93300.50
2023-03-08T18:05:40.993Z,93291.25
2023-03-08T18:08:14.134Z,93297.97
2023-03-08T18:11:00.995Z,93301.34
2023-03-08T18:13:41.100Z,93298.75
2023-03-08T18:16:29.068Z,93297.16
2023-03-08T18:19:02.468Z,93302.31
2023-03-08T18:21:48.992Z,93305.72
2023-03-08T18:24:22.113Z,93315.06
2023-03-08T18:27:12.042Z,93304.91
2023-03-08T18:29:54.284Z,93304.91
2023-03-08T18:32:41.025Z,93308.38
2023-03-08T18:35:15.082Z,93308.31
2023-03-08T18:38:09.019Z,93305.81
2023-03-08T18:41:02.973Z,93306.69
2023-03-08T18:43:58.022Z,93305.84
2023-03-08T18:46:53.144Z,93302.56
2023-03-08T18:49:50.377Z,93305.31
2023-03-08T18:52:37.010Z,93306.22
2023-03-08T18:55:10.210Z,93304.50
2023-03-08T18:57:57.000Z,93308.78
2023-03-08T19:00:31.252Z,93305.41
2023-03-08T19:03:18.035Z,93301.25
2023-03-08T19:05:51.135Z,93297.03
2023-03-08T19:08:39.010Z,93297.97
2023-03-08T19:11:36.055Z,93300.50
2023-03-08T19:14:31.021Z,93301.38
2023-03-08T19:17:18.014Z,93287.06
2023-03-08T19:19:51.168Z,93287.94
2023-03-08T19:22:38.056Z,93287.16
2023-03-08T19:25:19.011Z,93299.88
2023-03-08T19:28:06.021Z,93290.63
2023-03-08T19:30:49.044Z,93297.59
2023-03-08T19:33:43.018Z,93305.25
2023-03-08T19:36:30.025Z,93291.00
2023-03-08T19:39:03.277Z,93296.09
2023-03-08T19:41:50.031Z,93275.06
2023-03-08T19:44:23.232Z,93269.13
2023-03-08T19:47:11.038Z,93261.63
2023-03-08T19:49:51.038Z,93259.13
2023-03-08T19:52:38.027Z,93265.91
2023-03-08T19:55:20.019Z,93271.00
2023-03-08T19:58:07.065Z,93259.22
2023-03-08T20:00:47.038Z,93255.91
2023-03-08T20:03:34.219Z,93255.19
2023-03-08T20:06:14.058Z,93261.97
2023-03-08T20:09:08.051Z,93259.47
2023-03-08T20:12:01.056Z,93249.47
2023-03-08T20:14:34.131Z,93250.34
2023-03-08T20:17:21.059Z,93238.66
2023-03-08T20:19:54.310Z,93233.72
2023-03-08T20:22:41.041Z,93229.66
2023-03-08T20:25:23.033Z,93224.75
2023-03-08T20:28:10.049Z,93228.25
2023-03-08T20:30:44.189Z,93231.66
2023-03-08T20:33:31.041Z,93225.84
2023-03-08T20:36:05.198Z,93225.06
2023-03-08T20:38:59.163Z,93230.25
2023-03-08T20:41:39.078Z,93222.00
2023-03-08T20:44:19.047Z,93203.59
2023-03-08T20:46:52.168Z,93205.31
2023-03-08T20:49:39.075Z,93205.31
2023-03-08T20:52:21.092Z,93193.56
2023-03-08T20:55:08.056Z,93196.16
2023-03-08T20:57:48.058Z,93190.34
2023-03-08T21:00:35.086Z,93183.69
2023-03-08T21:03:08.170Z,93177.91
2023-03-08T21:05:55.089Z,93180.44
2023-03-08T21:08:28.173Z,93182.19
2023-03-08T21:11:15.154Z,93184.84
2023-03-08T21:13:49.247Z,93186.59
2023-03-08T21:16:37.073Z,93180.66
2023-03-08T21:19:18.036Z,93181.56
2023-03-08T21:22:05.166Z,93180.78
2023-03-08T21:24:45.068Z,93180.81
2023-03-08T21:27:39.082Z,93165.66
2023-03-08T21:30:27.175Z,93174.13
2023-03-08T21:33:00.254Z,93168.31
2023-03-08T21:35:49.088Z,93164.09
2023-03-08T21:38:24.641Z,93159.94
2023-03-08T21:41:11.055Z,93155.78
2023-03-08T21:43:44.232Z,93156.72
2023-03-08T21:46:31.141Z,93159.28
2023-03-08T21:49:04.226Z,93148.41
2023-03-08T21:51:51.080Z,93141.84
2023-03-08T21:54:32.081Z,93136.09
2023-03-08T21:57:26.172Z,93135.34
2023-03-08T22:00:20.072Z,93137.97
2023-03-08T22:03:14.129Z,93139.81
2023-03-08T22:06:01.086Z,93142.34
2023-03-08T22:08:34.242Z,93137.34
2023-03-08T22:11:22.074Z,93143.25
2023-03-08T22:13:57.278Z,93139.94
2023-03-08T22:16:44.070Z,93131.53
2023-03-08T22:19:24.093Z,93131.41
2023-03-08T22:22:18.076Z,93137.38
2023-03-08T22:25:12.088Z,93128.16
2023-03-08T22:28:00.224Z,93128.28
2023-03-08T22:30:34.338Z,93120.88
2023-03-08T22:33:22.131Z,93131.13
2023-03-08T22:35:55.257Z,93131.25
2023-03-08T22:38:49.120Z,93128.81
2023-03-08T22:41:43.114Z,93133.97
2023-03-08T22:44:37.069Z,93133.25
2023-03-08T22:47:31.110Z,93129.91
2023-03-08T22:50:26.117Z,93133.31
2023-03-08T22:53:20.091Z,93124.94
2023-03-08T22:56:07.080Z,93120.88
2023-03-08T22:58:41.200Z,93122.69
2023-03-08T23:01:30.155Z,93108.38
2023-03-08T23:04:05.338Z,93115.16
2023-03-08T23:06:54.217Z,93113.50
2023-03-08T23:09:35.121Z,93107.63
2023-03-08T23:12:23.346Z,93116.13
2023-03-08T23:15:04.183Z,93107.75
2023-03-08T23:17:51.223Z,93114.50
2023-03-08T23:20:25.426Z,93110.31
2023-03-08T23:23:05.146Z,93111.09
2023-03-08T23:25:50.139Z,93109.38
2023-03-08T23:28:23.232Z,93116.97
2023-03-08T23:31:23.234Z,93116.13
2023-03-08T23:34:00.721Z,93107.75
2023-03-08T23:36:47.192Z,93097.66
2023-03-08T23:39:20.325Z,93092.63
2023-03-08T23:42:08.105Z,93088.44
2023-03-08T23:44:41.230Z,93082.53
2023-03-08T23:47:28.278Z,93080.78
2023-03-08T23:50:01.242Z,93076.59
2023-03-08T23:52:48.109Z,93075.72
2023-03-08T23:55:21.201Z,93079.94
2023-03-08T23:58:08.124Z,93074.13
